sensor_id;sensor_type;location;lat;lon;timestamp;temperature;humidity
24410;DHT22;12543;53.364;-1.504;2023-05-07T00:01:42;14.30;99.90
24410;DHT22;12543;53.364;-1.504;2023-05-07T00:04:09;14.30;99.90
24410;DHT22;12543;53.364;-1.504;2023-05-07T00:06:37;14.30;99.90
24410;DHT22;12543;53.364;-1.504;2023-05-07T00:09:04;14.30;99.90
24410;DHT22;12543;53.364;-1.504;2023-05-07T00:11:31;14.30;99.90
24410;DHT22;12543;53.364;-1.504;2023-05-07T00:13:59;14.30;99.90
24410;DHT22;12543;53.364;-1.504;2023-05-07T00:16:26;14.30;99.90
24410;DHT22;12543;53.364;-1.504;2023-05-07T00:18:53;14.30;99.90
24410;DHT22;12543;53.364;-1.504;2023-05-07T00:21:20;14.30;99.90
24410;DHT22;12543;53.364;-1.504;2023-05-07T00:26:15;14.50;99.90
24410;DHT22;12543;53.364;-1.504;2023-05-07T00:28:44;14.40;99.90
24410;DHT22;12543;53.364;-1.504;2023-05-07T00:31:11;14.20;99.90
24410;DHT22;12543;53.364;-1.504;2023-05-07T00:33:38;14.30;99.90
24410;DHT22;12543;53.364;-1.504;2023-05-07T00:36:05;14.20;99.90
24410;DHT22;12543;53.364;-1.504;2023-05-07T00:38:32;14.20;99.90
24410;DHT22;12543;53.364;-1.504;2023-05-07T00:40:59;14.20;99.90
24410;DHT22;12543;53.364;-1.504;2023-05-07T00:43:26;14.20;99.90
24410;DHT22;12543;53.364;-1.504;2023-05-07T00:45:54;14.20;99.90
24410;DHT22;12543;53.364;-1.504;2023-05-07T00:48:22;14.20;99.90
24410;DHT22;12543;53.364;-1.504;2023-05-07T00:50:51;14.20;99.90
24410;DHT22;12543;53.364;-1.504;2023-05-07T00:53:18;14.20;99.90
24410;DHT22;12543;53.364;-1.504;2023-05-07T00:55:45;14.20;99.90
24410;DHT22;12543;53.364;-1.504;2023-05-07T00:58:12;14.20;99.90
24410;DHT22;12543;53.364;-1.504;2023-05-07T01:00:39;14.30;99.90
24410;DHT22;12543;53.364;-1.504;2023-05-07T01:03:07;14.30;99.90
24410;DHT22;12543;53.364;-1.504;2023-05-07T01:05:37;14.20;99.90
24410;DHT22;12543;53.364;-1.504;2023-05-07T01:08:05;14.20;99.90
24410;DHT22;12543;53.364;-1.504;2023-05-07T01:10:32;14.20;99.90
24410;DHT22;12543;53.364;-1.504;2023-05-07T01:13:01;14.30;99.90
24410;DHT22;12543;53.364;-1.504;2023-05-07T01:15:28;14.20;99.90
24410;DHT22;12543;53.364;-1.504;2023-05-07T01:17:55;14.20;99.90
24410;DHT22;12543;53.364;-1.504;2023-05-07T01:20:30;14.20;99.90
24410;DHT22;12543;53.364;-1.504;2023-05-07T01:22:57;14.20;99.90
24410;DHT22;12543;53.364;-1.504;2023-05-07T01:25:25;14.20;99.90
24410;DHT22;12543;53.364;-1.504;2023-05-07T01:27:56;14.20;99.90
24410;DHT22;12543;53.364;-1.504;2023-05-07T01:30:27;14.20;99.90
24410;DHT22;12543;53.364;-1.504;2023-05-07T01:33:06;14.20;99.90
24410;DHT22;12543;53.364;-1.504;2023-05-07T01:35:38;14.20;99.90
24410;DHT22;12543;53.364;-1.504;2023-05-07T01:38:07;14.20;99.90
24410;DHT22;12543;53.364;-1.504;2023-05-07T01:40:34;14.20;99.90
24410;DHT22;12543;53.364;-1.504;2023-05-07T01:43:02;14.30;99.90
24410;DHT22;12543;53.364;-1.504;2023-05-07T01:45:30;14.20;99.90
24410;DHT22;12543;53.364;-1.504;2023-05-07T01:48:03;14.20;99.90
24410;DHT22;12543;53.364;-1.504;2023-05-07T01:50:30;14.10;99.90
24410;DHT22;12543;53.364;-1.504;2023-05-07T01:52:58;14.20;99.90
24410;DHT22;12543;53.364;-1.504;2023-05-07T01:55:26;14.20;99.90
24410;DHT22;12543;53.364;-1.504;2023-05-07T01:57:53;14.20;99.90
24410;DHT22;12543;53.364;-1.504;2023-05-07T02:00:20;14.10;99.90
24410;DHT22;12543;53.364;-1.504;2023-05-07T02:02:47;14.10;99.90
24410;DHT22;12543;53.364;-1.504;2023-05-07T02:05:24;14.10;99.90
24410;DHT22;12543;53.364;-1.504;2023-05-07T02:07:58;14.10;99.90
24410;DHT22;12543;53.364;-1.504;2023-05-07T02:10:27;14.10;99.90
24410;DHT22;12543;53.364;-1.504;2023-05-07T02:12:54;14.20;99.90
24410;DHT22;12543;53.364;-1.504;2023-05-07T02:15:21;14.20;99.90
24410;DHT22;12543;53.364;-1.504;2023-05-07T02:17:59;14.10;99.90
24410;DHT22;12543;53.364;-1.504;2023-05-07T02:20:26;14.20;99.90
24410;DHT22;12543;53.364;-1.504;2023-05-07T02:22:54;14.10;99.90
24410;DHT22;12543;53.364;-1.504;2023-05-07T02:25:21;14.20;99.90
24410;DHT22;12543;53.364;-1.504;2023-05-07T02:27:48;14.20;99.90
24410;DHT22;12543;53.364;-1.504;2023-05-07T02:30:17;14.20;99.90
24410;DHT22;12543;53.364;-1.504;2023-05-07T02:32:44;14.20;99.90
24410;DHT22;12543;53.364;-1.504;2023-05-07T02:35:11;14.10;99.90
24410;DHT22;12543;53.364;-1.504;2023-05-07T02:37:38;14.20;99.90
24410;DHT22;12543;53.364;-1.504;2023-05-07T02:40:05;14.20;99.90
24410;DHT22;12543;53.364;-1.504;2023-05-07T02:42:32;14.20;99.90
24410;DHT22;12543;53.364;-1.504;2023-05-07T02:44:59;14.20;99.90
24410;DHT22;12543;53.364;-1.504;2023-05-07T02:47:27;14.20;99.90
24410;DHT22;12543;53.364;-1.504;2023-05-07T02:49:57;14.20;99.90
24410;DHT22;12543;53.364;-1.504;2023-05-07T02:52:24;14.20;99.90
24410;DHT22;12543;53.364;-1.504;2023-05-07T02:54:51;14.20;99.90
24410;DHT22;12543;53.364;-1.504;2023-05-07T02:57:18;14.20;99.90
24410;DHT22;12543;53.364;-1.504;2023-05-07T02:59:45;14.10;99.90
24410;DHT22;12543;53.364;-1.504;2023-05-07T03:02:14;14.20;99.90
24410;DHT22;12543;53.364;-1.504;2023-05-07T03:04:42;14.10;99.90
24410;DHT22;12543;53.364;-1.504;2023-05-07T03:07:09;14.20;99.90
24410;DHT22;12543;53.364;-1.504;2023-05-07T03:09:36;14.20;99.90
24410;DHT22;12543;53.364;-1.504;2023-05-07T03:12:03;14.20;99.90
24410;DHT22;12543;53.364;-1.504;2023-05-07T03:14:30;14.10;99.90
24410;DHT22;12543;53.364;-1.504;2023-05-07T03:16:57;14.10;99.90
24410;DHT22;12543;53.364;-1.504;2023-05-07T03:19:24;14.10;99.90
24410;DHT22;12543;53.364;-1.504;2023-05-07T03:21:53;14.10;99.90
24410;DHT22;12543;53.364;-1.504;2023-05-07T03:24:20;14.20;99.90
24410;DHT22;12543;53.364;-1.504;2023-05-07T03:26:47;14.10;99.90
24410;DHT22;12543;53.364;-1.504;2023-05-07T03:29:14;14.20;99.90
24410;DHT22;12543;53.364;-1.504;2023-05-07T03:31:41;14.10;99.90
24410;DHT22;12543;53.364;-1.504;2023-05-07T03:34:09;14.10;99.90
24410;DHT22;12543;53.364;-1.504;2023-05-07T03:36:38;14.20;99.90
24410;DHT22;12543;53.364;-1.504;2023-05-07T03:39:10;14.20;99.90
24410;DHT22;12543;53.364;-1.504;2023-05-07T03:41:40;14.20;99.90
24410;DHT22;12543;53.364;-1.504;2023-05-07T03:44:07;14.10;99.90
24410;DHT22;12543;53.364;-1.504;2023-05-07T03:46:34;14.20;99.90
24410;DHT22;12543;53.364;-1.504;2023-05-07T03:49:02;14.20;99.90
24410;DHT22;12543;53.364;-1.504;2023-05-07T03:51:30;14.20;99.90
24410;DHT22;12543;53.364;-1.504;2023-05-07T03:53:57;14.10;99.90
24410;DHT22;12543;53.364;-1.504;2023-05-07T03:56:26;14.10;99.90
24410;DHT22;12543;53.364;-1.504;2023-05-07T03:58:56;14.10;99.90
24410;DHT22;12543;53.364;-1.504;2023-05-07T04:01:23;14.10;99.90
24410;DHT22;12543;53.364;-1.504;2023-05-07T04:03:50;14.10;99.90
24410;DHT22;12543;53.364;-1.504;2023-05-07T04:06:17;14.10;99.90
24410;DHT22;12543;53.364;-1.504;2023-05-07T04:08:47;14.10;99.90
24410;DHT22;12543;53.364;-1.504;2023-05-07T04:11:14;14.10;99.90
24410;DHT22;12543;53.364;-1.504;2023-05-07T04:13:41;14.10;99.90
24410;DHT22;12543;53.364;-1.504;2023-05-07T04:16:08;14.10;99.90
24410;DHT22;12543;53.364;-1.504;2023-05-07T04:18:37;14.10;99.90
24410;DHT22;12543;53.364;-1.504;2023-05-07T04:21:04;14.10;99.90
24410;DHT22;12543;53.364;-1.504;2023-05-07T04:23:34;14.00;99.90
24410;DHT22;12543;53.364;-1.504;2023-05-07T04:26:06;14.10;99.90
24410;DHT22;12543;53.364;-1.504;2023-05-07T04:28:39;14.10;99.90
24410;DHT22;12543;53.364;-1.504;2023-05-07T04:31:07;14.10;99.90
24410;DHT22;12543;53.364;-1.504;2023-05-07T04:33:36;14.00;99.90
24410;DHT22;12543;53.364;-1.504;2023-05-07T04:36:04;14.00;99.90
24410;DHT22;12543;53.364;-1.504;2023-05-07T04:38:37;14.00;99.90
24410;DHT22;12543;53.364;-1.504;2023-05-07T04:41:06;14.00;99.90
24410;DHT22;12543;53.364;-1.504;2023-05-07T04:43:37;14.00;99.90
24410;DHT22;12543;53.364;-1.504;2023-05-07T04:46:04;14.00;99.90
24410;DHT22;12543;53.364;-1.504;2023-05-07T04:48:31;14.00;99.90
24410;DHT22;12543;53.364;-1.504;2023-05-07T04:51:01;14.00;99.90
24410;DHT22;12543;53.364;-1.504;2023-05-07T04:53:28;14.00;99.90
24410;DHT22;12543;53.364;-1.504;2023-05-07T04:55:56;14.00;99.90
24410;DHT22;12543;53.364;-1.504;2023-05-07T04:58:28;14.00;99.90
24410;DHT22;12543;53.364;-1.504;2023-05-07T05:00:59;14.00;99.90
24410;DHT22;12543;53.364;-1.504;2023-05-07T05:03:27;14.00;99.90
24410;DHT22;12543;53.364;-1.504;2023-05-07T05:05:55;14.00;99.90
24410;DHT22;12543;53.364;-1.504;2023-05-07T05:08:22;14.00;99.90
24410;DHT22;12543;53.364;-1.504;2023-05-07T05:10:50;14.00;99.90
24410;DHT22;12543;53.364;-1.504;2023-05-07T05:13:17;14.00;99.90
24410;DHT22;12543;53.364;-1.504;2023-05-07T05:15:45;14.00;99.90
24410;DHT22;12543;53.364;-1.504;2023-05-07T05:18:12;14.00;99.90
24410;DHT22;12543;53.364;-1.504;2023-05-07T05:20:39;14.00;99.90
24410;DHT22;12543;53.364;-1.504;2023-05-07T05:23:07;14.00;99.90
24410;DHT22;12543;53.364;-1.504;2023-05-07T05:25:34;14.00;99.90
24410;DHT22;12543;53.364;-1.504;2023-05-07T05:28:02;14.00;99.90
24410;DHT22;12543;53.364;-1.504;2023-05-07T05:30:32;14.00;99.90
24410;DHT22;12543;53.364;-1.504;2023-05-07T05:32:59;14.00;99.90
24410;DHT22;12543;53.364;-1.504;2023-05-07T05:35:27;14.00;99.90
24410;DHT22;12543;53.364;-1.504;2023-05-07T05:37:55;14.00;99.90
24410;DHT22;12543;53.364;-1.504;2023-05-07T05:40:23;14.00;99.90
24410;DHT22;12543;53.364;-1.504;2023-05-07T05:42:50;14.10;99.90
24410;DHT22;12543;53.364;-1.504;2023-05-07T05:45:17;14.10;99.90
24410;DHT22;12543;53.364;-1.504;2023-05-07T05:47:45;14.10;99.90
24410;DHT22;12543;53.364;-1.504;2023-05-07T05:50:12;14.00;99.90
24410;DHT22;12543;53.364;-1.504;2023-05-07T05:52:42;14.10;99.90
24410;DHT22;12543;53.364;-1.504;2023-05-07T05:58:37;14.20;99.90
24410;DHT22;12543;53.364;-1.504;2023-05-07T06:01:06;14.10;99.90
24410;DHT22;12543;53.364;-1.504;2023-05-07T06:03:35;14.30;99.90
24410;DHT22;12543;53.364;-1.504;2023-05-07T06:06:07;14.20;99.90
24410;DHT22;12543;53.364;-1.504;2023-05-07T06:08:34;14.20;99.90
24410;DHT22;12543;53.364;-1.504;2023-05-07T06:11:02;14.20;99.90
24410;DHT22;12543;53.364;-1.504;2023-05-07T06:13:44;14.30;99.90
24410;DHT22;12543;53.364;-1.504;2023-05-07T06:16:36;14.30;99.90
24410;DHT22;12543;53.364;-1.504;2023-05-07T06:19:26;14.30;99.90
24410;DHT22;12543;53.364;-1.504;2023-05-07T06:21:56;14.30;99.90
24410;DHT22;12543;53.364;-1.504;2023-05-07T06:24:56;14.30;99.90
24410;DHT22;12543;53.364;-1.504;2023-05-07T06:27:57;14.40;99.90
24410;DHT22;12543;53.364;-1.504;2023-05-07T06:30:17;14.40;99.90
24410;DHT22;12543;53.364;-1.504;2023-05-07T06:32:45;14.40;99.90
24410;DHT22;12543;53.364;-1.504;2023-05-07T06:35:13;14.50;99.90
24410;DHT22;12543;53.364;-1.504;2023-05-07T06:37:41;14.50;99.90
24410;DHT22;12543;53.364;-1.504;2023-05-07T06:40:14;14.50;99.90
24410;DHT22;12543;53.364;-1.504;2023-05-07T06:42:43;14.50;99.90
24410;DHT22;12543;53.364;-1.504;2023-05-07T06:45:36;14.50;99.90
24410;DHT22;12543;53.364;-1.504;2023-05-07T06:48:04;14.50;99.90
24410;DHT22;12543;53.364;-1.504;2023-05-07T06:50:40;14.50;99.90
24410;DHT22;12543;53.364;-1.504;2023-05-07T06:53:07;14.60;99.90
24410;DHT22;12543;53.364;-1.504;2023-05-07T06:55:34;14.60;99.90
24410;DHT22;12543;53.364;-1.504;2023-05-07T06:58:01;14.60;99.90
24410;DHT22;12543;53.364;-1.504;2023-05-07T07:00:28;14.60;99.90
24410;DHT22;12543;53.364;-1.504;2023-05-07T07:02:56;14.60;99.90
24410;DHT22;12543;53.364;-1.504;2023-05-07T07:05:26;14.70;99.90
24410;DHT22;12543;53.364;-1.504;2023-05-07T07:07:54;14.60;99.90
24410;DHT22;12543;53.364;-1.504;2023-05-07T07:10:21;14.70;99.90
24410;DHT22;12543;53.364;-1.504;2023-05-07T07:12:50;14.70;99.90
24410;DHT22;12543;53.364;-1.504;2023-05-07T07:15:20;14.80;99.90
24410;DHT22;12543;53.364;-1.504;2023-05-07T07:17:48;14.80;99.90
24410;DHT22;12543;53.364;-1.504;2023-05-07T07:20:16;14.80;99.90
24410;DHT22;12543;53.364;-1.504;2023-05-07T07:22:44;14.80;99.90
24410;DHT22;12543;53.364;-1.504;2023-05-07T07:25:12;14.90;99.90
24410;DHT22;12543;53.364;-1.504;2023-05-07T07:27:39;14.90;99.90
24410;DHT22;12543;53.364;-1.504;2023-05-07T07:30:08;14.90;99.90
24410;DHT22;12543;53.364;-1.504;2023-05-07T07:32:38;14.90;99.90
24410;DHT22;12543;53.364;-1.504;2023-05-07T07:35:06;14.90;99.90
24410;DHT22;12543;53.364;-1.504;2023-05-07T07:37:34;15.00;99.90
24410;DHT22;12543;53.364;-1.504;2023-05-07T07:40:02;15.00;99.90
24410;DHT22;12543;53.364;-1.504;2023-05-07T07:42:31;15.00;99.90
24410;DHT22;12543;53.364;-1.504;2023-05-07T07:44:59;15.10;99.90
24410;DHT22;12543;53.364;-1.504;2023-05-07T07:47:30;15.10;99.90
24410;DHT22;12543;53.364;-1.504;2023-05-07T07:49:57;15.10;99.90
24410;DHT22;12543;53.364;-1.504;2023-05-07T07:52:27;15.10;99.90
24410;DHT22;12543;53.364;-1.504;2023-05-07T07:54:54;15.10;99.90
24410;DHT22;12543;53.364;-1.504;2023-05-07T07:57:22;15.20;99.90
24410;DHT22;12543;53.364;-1.504;2023-05-07T07:59:49;15.30;99.90
24410;DHT22;12543;53.364;-1.504;2023-05-07T08:02:17;15.30;99.90
24410;DHT22;12543;53.364;-1.504;2023-05-07T08:04:45;15.40;99.90
24410;DHT22;12543;53.364;-1.504;2023-05-07T08:07:12;15.50;99.90
24410;DHT22;12543;53.364;-1.504;2023-05-07T08:09:42;15.60;99.90
24410;DHT22;12543;53.364;-1.504;2023-05-07T08:12:10;15.60;99.90
24410;DHT22;12543;53.364;-1.504;2023-05-07T08:14:38;15.70;99.90
24410;DHT22;12543;53.364;-1.504;2023-05-07T08:17:07;15.80;99.90
24410;DHT22;12543;53.364;-1.504;2023-05-07T08:19:37;15.80;99.90
24410;DHT22;12543;53.364;-1.504;2023-05-07T08:22:06;15.80;99.90
24410;DHT22;12543;53.364;-1.504;2023-05-07T08:24:41;15.90;99.90
24410;DHT22;12543;53.364;-1.504;2023-05-07T08:27:08;15.90;99.90
24410;DHT22;12543;53.364;-1.504;2023-05-07T08:29:36;15.90;99.90
24410;DHT22;12543;53.364;-1.504;2023-05-07T08:32:04;15.90;99.90
24410;DHT22;12543;53.364;-1.504;2023-05-07T08:34:31;15.90;99.90
24410;DHT22;12543;53.364;-1.504;2023-05-07T08:37:01;15.90;99.90
24410;DHT22;12543;53.364;-1.504;2023-05-07T08:39:31;15.90;99.90
24410;DHT22;12543;53.364;-1.504;2023-05-07T08:42:06;15.90;99.90
24410;DHT22;12543;53.364;-1.504;2023-05-07T08:44:34;16.00;99.90
24410;DHT22;12543;53.364;-1.504;2023-05-07T08:47:06;16.00;99.90
24410;DHT22;12543;53.364;-1.504;2023-05-07T08:49:36;16.10;99.90
24410;DHT22;12543;53.364;-1.504;2023-05-07T08:52:06;16.10;99.90
24410;DHT22;12543;53.364;-1.504;2023-05-07T08:54:36;16.20;99.90
24410;DHT22;12543;53.364;-1.504;2023-05-07T08:57:06;16.20;99.90
24410;DHT22;12543;53.364;-1.504;2023-05-07T08:59:34;16.30;99.90
24410;DHT22;12543;53.364;-1.504;2023-05-07T09:02:01;16.40;99.90
24410;DHT22;12543;53.364;-1.504;2023-05-07T09:04:28;16.50;99.90
24410;DHT22;12543;53.364;-1.504;2023-05-07T09:06:55;16.50;99.90
24410;DHT22;12543;53.364;-1.504;2023-05-07T09:09:23;16.60;99.90
24410;DHT22;12543;53.364;-1.504;2023-05-07T09:11:57;16.70;99.90
24410;DHT22;12543;53.364;-1.504;2023-05-07T09:14:28;16.70;99.90
24410;DHT22;12543;53.364;-1.504;2023-05-07T09:16:55;16.80;99.90
24410;DHT22;12543;53.364;-1.504;2023-05-07T09:19:23;16.80;99.90
24410;DHT22;12543;53.364;-1.504;2023-05-07T09:22:01;16.80;99.90
24410;DHT22;12543;53.364;-1.504;2023-05-07T09:24:36;16.80;99.90
24410;DHT22;12543;53.364;-1.504;2023-05-07T09:27:07;16.90;99.90
24410;DHT22;12543;53.364;-1.504;2023-05-07T09:29:35;17.00;99.90
24410;DHT22;12543;53.364;-1.504;2023-05-07T09:32:05;17.00;99.90
24410;DHT22;12543;53.364;-1.504;2023-05-07T09:34:32;17.10;99.90
24410;DHT22;12543;53.364;-1.504;2023-05-07T09:37:01;17.20;99.90
24410;DHT22;12543;53.364;-1.504;2023-05-07T09:39:41;17.30;99.90
24410;DHT22;12543;53.364;-1.504;2023-05-07T09:42:10;17.40;99.90
24410;DHT22;12543;53.364;-1.504;2023-05-07T09:44:39;17.70;99.90
24410;DHT22;12543;53.364;-1.504;2023-05-07T09:47:11;17.90;99.90
24410;DHT22;12543;53.364;-1.504;2023-05-07T09:49:43;18.10;99.90
24410;DHT22;12543;53.364;-1.504;2023-05-07T09:52:18;18.10;99.90
24410;DHT22;12543;53.364;-1.504;2023-05-07T09:54:48;18.30;99.90
24410;DHT22;12543;53.364;-1.504;2023-05-07T09:57:19;18.60;99.90
24410;DHT22;12543;53.364;-1.504;2023-05-07T10:02:19;18.90;99.90
24410;DHT22;12543;53.364;-1.504;2023-05-07T10:04:51;18.90;99.90
24410;DHT22;12543;53.364;-1.504;2023-05-07T10:09:55;19.10;99.90
24410;DHT22;12543;53.364;-1.504;2023-05-07T10:12:30;19.20;99.90
24410;DHT22;12543;53.364;-1.504;2023-05-07T10:15:08;19.20;99.90
24410;DHT22;12543;53.364;-1.504;2023-05-07T10:20:07;19.60;99.90
24410;DHT22;12543;53.364;-1.504;2023-05-07T10:22:38;20.10;99.90
24410;DHT22;12543;53.364;-1.504;2023-05-07T10:25:09;20.40;99.90
24410;DHT22;12543;53.364;-1.504;2023-05-07T10:35:16;22.10;99.90
24410;DHT22;12543;53.364;-1.504;2023-05-07T10:37:45;22.30;99.90
24410;DHT22;12543;53.364;-1.504;2023-05-07T10:40:12;22.40;99.90
24410;DHT22;12543;53.364;-1.504;2023-05-07T10:42:52;22.60;99.90
24410;DHT22;12543;53.364;-1.504;2023-05-07T10:58:57;24.80;99.90
24410;DHT22;12543;53.364;-1.504;2023-05-07T11:01:54;25.40;99.90
24410;DHT22;12543;53.364;-1.504;2023-05-07T11:04:46;25.60;99.90
24410;DHT22;12543;53.364;-1.504;2023-05-07T11:07:39;26.00;99.90
24410;DHT22;12543;53.364;-1.504;2023-05-07T11:10:11;26.30;99.90
24410;DHT22;12543;53.364;-1.504;2023-05-07T11:13:04;26.70;99.90
24410;DHT22;12543;53.364;-1.504;2023-05-07T11:15:47;26.90;99.90
24410;DHT22;12543;53.364;-1.504;2023-05-07T11:18:21;27.10;99.90
24410;DHT22;12543;53.364;-1.504;2023-05-07T11:20:51;27.40;99.90
24410;DHT22;12543;53.364;-1.504;2023-05-07T11:26:19;28.00;99.90
24410;DHT22;12543;53.364;-1.504;2023-05-07T11:28:47;28.10;99.90
24410;DHT22;12543;53.364;-1.504;2023-05-07T11:31:14;28.20;99.90
24410;DHT22;12543;53.364;-1.504;2023-05-07T11:33:47;28.20;99.90
24410;DHT22;12543;53.364;-1.504;2023-05-07T11:36:18;28.10;99.90
24410;DHT22;12543;53.364;-1.504;2023-05-07T11:38:47;27.90;99.90
24410;DHT22;12543;53.364;-1.504;2023-05-07T11:41:15;27.90;99.90
24410;DHT22;12543;53.364;-1.504;2023-05-07T11:44:15;28.30;99.90
24410;DHT22;12543;53.364;-1.504;2023-05-07T11:46:35;28.10;99.90
24410;DHT22;12543;53.364;-1.504;2023-05-07T11:49:02;27.90;99.90
24410;DHT22;12543;53.364;-1.504;2023-05-07T11:51:29;27.80;99.90
24410;DHT22;12543;53.364;-1.504;2023-05-07T11:56:24;28.00;99.90
24410;DHT22;12543;53.364;-1.504;2023-05-07T11:58:51;28.10;99.90
24410;DHT22;12543;53.364;-1.504;2023-05-07T12:01:18;28.30;99.90
24410;DHT22;12543;53.364;-1.504;2023-05-07T12:03:45;28.50;99.90
24410;DHT22;12543;53.364;-1.504;2023-05-07T12:06:14;28.50;99.90
24410;DHT22;12543;53.364;-1.504;2023-05-07T12:08:42;28.60;99.90
24410;DHT22;12543;53.364;-1.504;2023-05-07T12:11:14;28.90;99.90
24410;DHT22;12543;53.364;-1.504;2023-05-07T12:13:41;29.10;99.90
24410;DHT22;12543;53.364;-1.504;2023-05-07T12:16:08;29.20;99.90
24410;DHT22;12543;53.364;-1.504;2023-05-07T12:18:36;29.20;99.90
24410;DHT22;12543;53.364;-1.504;2023-05-07T12:21:04;29.30;99.90
24410;DHT22;12543;53.364;-1.504;2023-05-07T12:23:32;29.40;99.90
24410;DHT22;12543;53.364;-1.504;2023-05-07T12:25:59;29.50;99.90
24410;DHT22;12543;53.364;-1.504;2023-05-07T12:28:28;29.60;99.90
24410;DHT22;12543;53.364;-1.504;2023-05-07T12:30:55;29.60;99.90
24410;DHT22;12543;53.364;-1.504;2023-05-07T12:33:24;29.60;99.90
24410;DHT22;12543;53.364;-1.504;2023-05-07T12:35:52;29.80;99.90
24410;DHT22;12543;53.364;-1.504;2023-05-07T12:38:19;29.80;99.90
24410;DHT22;12543;53.364;-1.504;2023-05-07T12:40:50;29.80;99.90
24410;DHT22;12543;53.364;-1.504;2023-05-07T12:43:25;29.80;99.90
24410;DHT22;12543;53.364;-1.504;2023-05-07T12:45:56;29.80;99.90
24410;DHT22;12543;53.364;-1.504;2023-05-07T12:48:23;29.70;99.90
24410;DHT22;12543;53.364;-1.504;2023-05-07T12:50:54;29.70;99.90
24410;DHT22;12543;53.364;-1.504;2023-05-07T12:53:22;29.80;99.90
24410;DHT22;12543;53.364;-1.504;2023-05-07T12:55:51;29.90;99.90
24410;DHT22;12543;53.364;-1.504;2023-05-07T12:58:36;29.90;99.90
24410;DHT22;12543;53.364;-1.504;2023-05-07T13:01:07;29.90;99.90
24410;DHT22;12543;53.364;-1.504;2023-05-07T13:03:34;29.90;99.90
24410;DHT22;12543;53.364;-1.504;2023-05-07T13:08:33;29.70;99.90
24410;DHT22;12543;53.364;-1.504;2023-05-07T13:11:01;29.60;99.90
24410;DHT22;12543;53.364;-1.504;2023-05-07T13:13:31;29.30;99.90
24410;DHT22;12543;53.364;-1.504;2023-05-07T13:15:59;29.20;99.90
24410;DHT22;12543;53.364;-1.504;2023-05-07T13:18:29;28.80;99.90
24410;DHT22;12543;53.364;-1.504;2023-05-07T13:20:57;28.40;99.90
24410;DHT22;12543;53.364;-1.504;2023-05-07T13:23:24;27.90;99.90
24410;DHT22;12543;53.364;-1.504;2023-05-07T13:25:51;27.40;99.90
24410;DHT22;12543;53.364;-1.504;2023-05-07T13:28:23;26.90;99.90
24410;DHT22;12543;53.364;-1.504;2023-05-07T13:30:50;26.60;99.90
24410;DHT22;12543;53.364;-1.504;2023-05-07T13:33:18;26.30;99.90
24410;DHT22;12543;53.364;-1.504;2023-05-07T13:35:45;26.00;99.90
24410;DHT22;12543;53.364;-1.504;2023-05-07T13:38:12;25.60;99.90
24410;DHT22;12543;53.364;-1.504;2023-05-07T13:40:39;25.30;99.90
24410;DHT22;12543;53.364;-1.504;2023-05-07T13:43:06;25.00;99.90
24410;DHT22;12543;53.364;-1.504;2023-05-07T13:45:33;24.80;99.90
24410;DHT22;12543;53.364;-1.504;2023-05-07T13:48:00;24.60;99.90
24410;DHT22;12543;53.364;-1.504;2023-05-07T13:50:27;24.50;99.90
24410;DHT22;12543;53.364;-1.504;2023-05-07T13:52:56;24.40;99.90
24410;DHT22;12543;53.364;-1.504;2023-05-07T13:55:23;24.20;99.90
24410;DHT22;12543;53.364;-1.504;2023-05-07T13:57:54;24.00;99.90
24410;DHT22;12543;53.364;-1.504;2023-05-07T14:00:23;23.90;99.90
24410;DHT22;12543;53.364;-1.504;2023-05-07T14:02:50;23.70;99.90
24410;DHT22;12543;53.364;-1.504;2023-05-07T14:05:17;23.60;99.90
24410;DHT22;12543;53.364;-1.504;2023-05-07T14:07:45;23.40;99.90
24410;DHT22;12543;53.364;-1.504;2023-05-07T14:10:13;23.30;99.90
24410;DHT22;12543;53.364;-1.504;2023-05-07T14:12:41;23.30;99.90
24410;DHT22;12543;53.364;-1.504;2023-05-07T14:15:09;23.20;99.90
24410;DHT22;12543;53.364;-1.504;2023-05-07T14:17:36;23.10;99.90
24410;DHT22;12543;53.364;-1.504;2023-05-07T14:20:04;23.10;99.90
24410;DHT22;12543;53.364;-1.504;2023-05-07T14:22:32;23.00;99.90
24410;DHT22;12543;53.364;-1.504;2023-05-07T14:24:59;22.80;99.90
24410;DHT22;12543;53.364;-1.504;2023-05-07T14:27:32;22.70;99.90
24410;DHT22;12543;53.364;-1.504;2023-05-07T14:29:59;22.70;99.90
24410;DHT22;12543;53.364;-1.504;2023-05-07T14:32:26;22.70;99.90
24410;DHT22;12543;53.364;-1.504;2023-05-07T14:34:53;22.60;99.90
24410;DHT22;12543;53.364;-1.504;2023-05-07T14:37:20;22.60;99.90
24410;DHT22;12543;53.364;-1.504;2023-05-07T14:39:47;22.60;99.90
24410;DHT22;12543;53.364;-1.504;2023-05-07T14:42:17;22.50;99.90
24410;DHT22;12543;53.364;-1.504;2023-05-07T14:44:45;22.40;99.90
24410;DHT22;12543;53.364;-1.504;2023-05-07T14:47:13;22.30;99.90
24410;DHT22;12543;53.364;-1.504;2023-05-07T14:49:40;22.20;99.90
24410;DHT22;12543;53.364;-1.504;2023-05-07T14:52:07;22.10;99.90
24410;DHT22;12543;53.364;-1.504;2023-05-07T14:54:37;22.10;99.90
24410;DHT22;12543;53.364;-1.504;2023-05-07T14:57:05;22.00;99.90
24410;DHT22;12543;53.364;-1.504;2023-05-07T14:59:32;22.00;99.90
24410;DHT22;12543;53.364;-1.504;2023-05-07T15:01:59;21.90;99.90
24410;DHT22;12543;53.364;-1.504;2023-05-07T15:04:28;21.90;99.90
24410;DHT22;12543;53.364;-1.504;2023-05-07T15:06:55;21.80;99.90
24410;DHT22;12543;53.364;-1.504;2023-05-07T15:09:22;21.70;99.90
24410;DHT22;12543;53.364;-1.504;2023-05-07T15:11:49;21.70;99.90
24410;DHT22;12543;53.364;-1.504;2023-05-07T15:14:16;21.70;99.90
24410;DHT22;12543;53.364;-1.504;2023-05-07T15:16:43;21.60;99.90
24410;DHT22;12543;53.364;-1.504;2023-05-07T15:19:10;21.60;99.90
24410;DHT22;12543;53.364;-1.504;2023-05-07T15:21:37;21.50;99.90
24410;DHT22;12543;53.364;-1.504;2023-05-07T15:24:04;21.50;99.90
24410;DHT22;12543;53.364;-1.504;2023-05-07T15:26:32;21.50;99.90
24410;DHT22;12543;53.364;-1.504;2023-05-07T15:28:58;21.40;99.90
24410;DHT22;12543;53.364;-1.504;2023-05-07T15:31:26;21.30;99.90
24410;DHT22;12543;53.364;-1.504;2023-05-07T15:33:53;21.30;99.90
24410;DHT22;12543;53.364;-1.504;2023-05-07T15:36:21;21.20;99.90
24410;DHT22;12543;53.364;-1.504;2023-05-07T15:38:48;21.20;99.90
24410;DHT22;12543;53.364;-1.504;2023-05-07T15:41:14;21.10;99.90
24410;DHT22;12543;53.364;-1.504;2023-05-07T15:43:46;21.10;99.90
24410;DHT22;12543;53.364;-1.504;2023-05-07T15:46:16;21.10;99.90
24410;DHT22;12543;53.364;-1.504;2023-05-07T15:48:44;21.10;99.90
24410;DHT22;12543;53.364;-1.504;2023-05-07T15:51:11;21.00;99.90
24410;DHT22;12543;53.364;-1.504;2023-05-07T15:53:38;21.00;99.90
24410;DHT22;12543;53.364;-1.504;2023-05-07T15:56:08;21.00;99.90
24410;DHT22;12543;53.364;-1.504;2023-05-07T15:58:35;21.00;99.90
24410;DHT22;12543;53.364;-1.504;2023-05-07T16:01:03;20.90;99.90
24410;DHT22;12543;53.364;-1.504;2023-05-07T16:03:30;20.90;99.90
24410;DHT22;12543;53.364;-1.504;2023-05-07T16:05:58;21.00;99.90
24410;DHT22;12543;53.364;-1.504;2023-05-07T16:08:28;21.00;99.90
24410;DHT22;12543;53.364;-1.504;2023-05-07T16:10:55;21.00;99.90